Time;durP1;ratioP1;P1;durP2;ratioP2;P2;SDS_P1;SDS_P2;PMS_P1;PMS_P2;Temp;Humidity;BMP_temperature;BMP_pressure;BME280_temperature;BME280_humidity;BME280_pressure;Samples;Min_cycle;Max_cycle;Signal;HPM_P1;HPM_P2
2022/12/31 00:00:48;;;;;;;;;;;13.70;99.90;;;;;;5041780;28;19933;-84
2022/12/31 00:03:16;;;;;;;;;;;13.70;99.90;;;;;;5036271;28;20376;-84
2022/12/31 00:05:43;;;;;;;;;;;13.80;99.90;;;;;;5060639;28;20344;-82
2022/12/31 00:08:10;;;;;;;;;;;13.80;99.90;;;;;;5042783;28;19936;-83
2022/12/31 00:10:40;;;;;;;;;;;13.80;99.90;;;;;;5045355;28;19925;-83
2022/12/31 00:13:07;;;;;;;;;;;13.80;99.90;;;;;;5061562;28;19980;-83
2022/12/31 00:15:34;;;;;;;;;;;13.80;99.90;;;;;;5050704;28;19925;-83
2022/12/31 00:18:01;;;;;;;;;;;13.70;99.90;;;;;;5033660;28;19929;-83
2022/12/31 00:20:30;;;;;;;;;;;13.70;99.90;;;;;;5055555;28;19927;-81
2022/12/31 00:22:57;;;;;;;;;;;13.60;99.90;;;;;;5054757;28;19978;-83
2022/12/31 00:25:30;;;;;;;;;;;13.60;99.90;;;;;;5062155;28;19929;-86
2022/12/31 00:27:57;;;;;;;;;;;13.60;99.90;;;;;;5048935;28;20358;-85
2022/12/31 00:30:24;;;;;;;;;;;13.60;99.90;;;;;;5058992;28;19924;-85
2022/12/31 00:32:51;;;;;;;;;;;13.50;99.90;;;;;;5054775;28;19925;-85
2022/12/31 00:35:21;;;;;;;;;;;13.50;99.90;;;;;;5063863;28;19931;-84
2022/12/31 00:37:51;;;;;;;;;;;13.50;99.90;;;;;;5051778;28;19925;-84
2022/12/31 00:40:17;;;;;;;;;;;13.50;99.90;;;;;;5056933;28;19933;-84
2022/12/31 00:42:44;;;;;;;;;;;13.50;99.90;;;;;;5046864;23;21227;-76
2022/12/31 00:45:11;;;;;;;;;;;14.50;99.90;;;;;;5019539;28;19933;-76
2022/12/31 00:47:38;;;;;;;;;;;13.50;99.90;;;;;;5031865;28;19932;-76
2022/12/31 00:50:05;;;;;;;;;;;13.50;99.90;;;;;;5011611;28;20408;-76
2022/12/31 00:52:32;;;;;;;;;;;13.50;99.90;;;;;;5034087;28;19925;-76
2022/12/31 00:55:00;;;;;;;;;;;13.50;99.90;;;;;;5028982;28;19948;-76
2022/12/31 00:57:27;;;;;;;;;;;13.50;99.90;;;;;;5028981;28;20317;-76
2022/12/31 00:59:53;;;;;;;;;;;13.50;99.90;;;;;;5017354;28;19949;-76
2022/12/31 01:02:20;;;;;;;;;;;13.60;99.90;;;;;;5037627;28;19925;-77
2022/12/31 01:04:47;;;;;;;;;;;13.50;99.90;;;;;;5033194;28;20242;-78
2022/12/31 01:07:14;;;;;;;;;;;13.60;99.90;;;;;;5031543;28;19936;-76
2022/12/31 01:09:40;;;;;;;;;;;13.60;99.90;;;;;;5039952;28;19925;-75
2022/12/31 01:12:09;;;;;;;;;;;13.60;99.90;;;;;;5014693;28;19929;-76
2022/12/31 01:14:35;;;;;;;;;;;13.10;99.90;;;;;;5025807;28;19929;-75
2022/12/31 01:17:02;;;;;;;;;;;13.60;99.90;;;;;;5027976;28;19925;-75
2022/12/31 01:19:29;;;;;;;;;;;13.70;99.90;;;;;;5047150;28;19925;-78
2022/12/31 01:21:56;;;;;;;;;;;13.70;99.90;;;;;;5021848;28;19937;-76
2022/12/31 01:24:23;;;;;;;;;;;13.60;99.90;;;;;;5034494;28;19936;-77
2022/12/31 01:26:50;;;;;;;;;;;13.70;99.90;;;;;;5017395;28;20361;-76
2022/12/31 01:29:18;;;;;;;;;;;13.80;99.90;;;;;;5041597;28;19975;-77
2022/12/31 01:31:45;;;;;;;;;;;13.80;99.90;;;;;;5040728;28;20394;-76
2022/12/31 01:34:12;;;;;;;;;;;13.90;99.90;;;;;;5037710;28;19932;-76
2022/12/31 01:36:39;;;;;;;;;;;14.00;99.90;;;;;;5022416;28;20176;-75
2022/12/31 01:39:07;;;;;;;;;;;14.00;99.90;;;;;;5066225;28;19917;-75
2022/12/31 01:41:35;;;;;;;;;;;14.00;99.90;;;;;;5045262;28;19920;-75
2022/12/31 01:44:22;;;;;;;;;;;14.10;99.90;;;;;;5058280;28;20000;-75
2022/12/31 01:46:51;;;;;;;;;;;14.10;99.90;;;;;;5056274;28;19932;-76
2022/12/31 01:49:20;;;;;;;;;;;14.20;99.90;;;;;;5035933;28;19929;-76
2022/12/31 01:51:48;;;;;;;;;;;14.20;99.90;;;;;;5036668;28;19970;-76
2022/12/31 01:54:17;;;;;;;;;;;14.30;99.90;;;;;;5040293;28;19929;-76
2022/12/31 01:56:45;;;;;;;;;;;14.30;99.90;;;;;;5039576;28;20067;-76
2022/12/31 01:59:12;;;;;;;;;;;14.20;99.90;;;;;;5007532;28;19933;-76
2022/12/31 02:01:39;;;;;;;;;;;14.20;99.90;;;;;;5034714;28;20386;-76
2022/12/31 02:04:09;;;;;;;;;;;14.20;99.90;;;;;;5038172;28;19929;-76
2022/12/31 02:06:38;;;;;;;;;;;14.20;99.90;;;;;;5044296;28;19929;-76
2022/12/31 02:09:05;;;;;;;;;;;14.20;99.90;;;;;;5017042;28;20316;-76
2022/12/31 02:11:35;;;;;;;;;;;14.30;99.90;;;;;;5039499;28;20030;-76
2022/12/31 02:14:04;;;;;;;;;;;14.40;99.90;;;;;;5033038;28;19932;-76
2022/12/31 02:16:34;;;;;;;;;;;14.50;99.90;;;;;;5034411;28;19929;-76
2022/12/31 02:19:07;;;;;;;;;;;15.00;99.90;;;;;;5028738;28;19939;-76
2022/12/31 02:21:44;;;;;;;;;;;14.80;99.90;;;;;;5041065;28;19951;-76
2022/12/31 02:24:32;;;;;;;;;;;14.90;99.90;;;;;;5031259;28;19933;-76
2022/12/31 02:27:01;;;;;;;;;;;15.00;99.90;;;;;;5039188;28;19929;-76
2022/12/31 02:29:39;;;;;;;;;;;15.10;99.90;;;;;;5030376;28;19932;-76
2022/12/31 02:32:11;;;;;;;;;;;15.10;99.90;;;;;;5029644;28;19929;-76
2022/12/31 02:34:42;;;;;;;;;;;15.20;99.90;;;;;;5036033;28;19940;-77
2022/12/31 02:37:11;;;;;;;;;;;15.30;99.90;;;;;;5027220;28;20373;-76
2022/12/31 02:39:39;;;;;;;;;;;15.30;99.90;;;;;;5032921;28;19925;-77
2022/12/31 02:42:06;;;;;;;;;;;15.40;99.90;;;;;;5024392;28;19929;-76
2022/12/31 02:44:34;;;;;;;;;;;15.40;99.90;;;;;;5027096;28;19925;-77
2022/12/31 02:47:06;;;;;;;;;;;15.40;99.90;;;;;;5034509;28;19936;-76
2022/12/31 02:49:40;;;;;;;;;;;15.50;99.90;;;;;;5035067;28;19975;-76
2022/12/31 02:52:12;;;;;;;;;;;15.60;99.90;;;;;;5044259;28;20278;-77
2022/12/31 02:54:43;;;;;;;;;;;15.50;99.90;;;;;;5032287;28;19936;-76
2022/12/31 02:57:15;;;;;;;;;;;15.60;99.90;;;;;;5029133;28;19933;-76
2022/12/31 03:02:33;;;;;;;;;;;15.60;99.90;;;;;;5020892;28;20317;-77
2022/12/31 03:05:02;;;;;;;;;;;15.60;99.90;;;;;;5030702;28;19936;-76
2022/12/31 03:07:30;;;;;;;;;;;15.60;99.90;;;;;;5040534;28;19925;-76
2022/12/31 03:09:57;;;;;;;;;;;15.60;99.90;;;;;;5028797;28;19929;-76
2022/12/31 03:15:18;;;;;;;;;;;15.60;99.90;;;;;;5027081;28;19944;-77
2022/12/31 03:17:46;;;;;;;;;;;15.60;99.90;;;;;;5034342;28;19928;-76
2022/12/31 03:22:58;;;;;;;;;;;15.70;99.90;;;;;;5028880;28;19925;-75
2022/12/31 03:25:33;;;;;;;;;;;15.70;99.90;;;;;;5036196;28;19925;-76
2022/12/31 03:28:01;;;;;;;;;;;15.70;99.90;;;;;;5011703;28;19925;-76
2022/12/31 03:30:28;;;;;;;;;;;15.70;99.90;;;;;;5018206;28;20015;-76
2022/12/31 03:32:56;;;;;;;;;;;15.70;99.90;;;;;;5037212;28;19924;-76
2022/12/31 03:35:25;;;;;;;;;;;15.70;99.90;;;;;;5033064;28;19932;-77
2022/12/31 03:37:52;;;;;;;;;;;15.70;99.90;;;;;;5034181;28;19929;-76
2022/12/31 03:40:20;;;;;;;;;;;15.90;99.90;;;;;;5011750;28;19956;-77
2022/12/31 03:42:47;;;;;;;;;;;15.80;99.90;;;;;;5036567;28;19924;-76
2022/12/31 03:45:14;;;;;;;;;;;15.80;99.90;;;;;;5031689;28;19929;-78
2022/12/31 03:47:41;;;;;;;;;;;15.80;99.90;;;;;;5031229;28;19925;-77
2022/12/31 03:50:08;;;;;;;;;;;15.70;99.90;;;;;;5030899;28;20131;-76
2022/12/31 03:52:36;;;;;;;;;;;15.80;99.90;;;;;;5034226;28;19929;-76
2022/12/31 03:55:03;;;;;;;;;;;15.80;99.90;;;;;;5014477;28;19965;-77
2022/12/31 03:57:31;;;;;;;;;;;15.90;99.90;;;;;;5031793;28;20024;-78
2022/12/31 03:59:58;;;;;;;;;;;15.90;99.90;;;;;;5039001;28;20047;-76
2022/12/31 04:02:25;;;;;;;;;;;15.90;99.90;;;;;;5034255;28;19929;-78
2022/12/31 04:04:52;;;;;;;;;;;15.90;99.90;;;;;;5026763;28;19936;-77
2022/12/31 04:07:19;;;;;;;;;;;15.90;99.90;;;;;;5029182;28;20421;-76
2022/12/31 04:09:47;;;;;;;;;;;15.90;99.90;;;;;;5029520;28;20035;-76
2022/12/31 04:12:13;;;;;;;;;;;16.00;99.90;;;;;;5050281;28;19932;-76
2022/12/31 04:14:40;;;;;;;;;;;15.90;99.90;;;;;;5063750;28;19929;-76
2022/12/31 04:17:07;;;;;;;;;;;15.90;99.90;;;;;;5060151;28;20294;-80
2022/12/31 04:19:34;;;;;;;;;;;15.90;99.90;;;;;;5047633;28;20426;-78
2022/12/31 04:22:00;;;;;;;;;;;15.80;99.90;;;;;;5036223;28;19935;-77
2022/12/31 04:24:29;;;;;;;;;;;15.80;99.90;;;;;;5029046;28;19936;-78
2022/12/31 04:26:57;;;;;;;;;;;15.80;99.90;;;;;;5030290;28;19934;-77
2022/12/31 04:29:23;;;;;;;;;;;15.80;99.90;;;;;;5011227;28;20420;-78
2022/12/31 04:31:50;;;;;;;;;;;15.80;99.90;;;;;;5028601;28;19933;-77
2022/12/31 04:34:17;;;;;;;;;;;15.80;99.90;;;;;;5028539;28;20595;-77
2022/12/31 04:36:44;;;;;;;;;;;15.80;99.90;;;;;;5017564;28;19936;-78
2022/12/31 04:39:10;;;;;;;;;;;15.80;99.90;;;;;;5031873;28;19925;-76
2022/12/31 04:41:37;;;;;;;;;;;15.80;99.90;;;;;;5031501;28;19936;-77
2022/12/31 04:44:05;;;;;;;;;;;15.80;99.90;;;;;;5010788;28;20379;-77
2022/12/31 04:46:33;;;;;;;;;;;15.80;99.90;;;;;;5030553;28;19932;-77
2022/12/31 04:49:00;;;;;;;;;;;15.80;99.90;;;;;;5028613;28;19925;-78
2022/12/31 04:51:27;;;;;;;;;;;15.80;99.90;;;;;;5028764;28;19935;-77
2022/12/31 04:53:54;;;;;;;;;;;15.90;99.90;;;;;;5028865;28;19949;-77
2022/12/31 04:56:21;;;;;;;;;;;15.90;99.90;;;;;;5032066;28;19929;-79
2022/12/31 04:58:48;;;;;;;;;;;15.90;99.90;;;;;;5010720;28;19926;-77
2022/12/31 05:01:16;;;;;;;;;;;15.90;99.90;;;;;;5010807;28;20020;-76
2022/12/31 05:03:43;;;;;;;;;;;15.90;99.90;;;;;;5040565;28;19932;-76
2022/12/31 05:06:11;;;;;;;;;;;16.00;99.90;;;;;;5028573;28;19929;-77
2022/12/31 05:08:38;;;;;;;;;;;16.00;99.90;;;;;;5035212;28;19931;-75
2022/12/31 05:11:05;;;;;;;;;;;16.00;99.90;;;;;;5022199;28;19933;-77
2022/12/31 05:13:32;;;;;;;;;;;16.10;99.90;;;;;;5028926;28;20305;-76
2022/12/31 05:15:59;;;;;;;;;;;16.10;99.90;;;;;;5018239;28;20421;-77
2022/12/31 05:18:27;;;;;;;;;;;16.10;99.90;;;;;;5028800;28;20353;-77
2022/12/31 05:20:54;;;;;;;;;;;16.10;99.90;;;;;;5028386;28;19929;-76
2022/12/31 05:23:21;;;;;;;;;;;16.10;99.90;;;;;;5028503;28;19925;-79
2022/12/31 05:25:48;;;;;;;;;;;16.10;99.90;;;;;;5036784;28;19936;-79
2022/12/31 05:28:15;;;;;;;;;;;16.20;99.90;;;;;;5027904;28;20406;-78
2022/12/31 05:30:42;;;;;;;;;;;16.20;99.90;;;;;;5030900;28;19935;-76
2022/12/31 05:33:09;;;;;;;;;;;16.20;99.90;;;;;;5013748;28;19924;-77
2022/12/31 05:35:38;;;;;;;;;;;16.30;99.90;;;;;;5016679;28;19929;-77
2022/12/31 05:38:04;;;;;;;;;;;16.30;99.90;;;;;;5029544;28;19933;-77
2022/12/31 05:40:31;;;;;;;;;;;16.30;99.90;;;;;;5027725;28;19925;-77
2022/12/31 05:42:58;;;;;;;;;;;16.30;99.90;;;;;;5028260;28;19937;-76
2022/12/31 05:45:24;;;;;;;;;;;16.40;99.90;;;;;;5029451;28;19929;-76
2022/12/31 05:47:51;;;;;;;;;;;16.40;99.90;;;;;;5030202;28;19932;-76
2022/12/31 05:50:18;;;;;;;;;;;16.40;99.90;;;;;;5027787;28;19929;-77
2022/12/31 05:52:46;;;;;;;;;;;16.40;99.90;;;;;;5027361;28;19940;-76
2022/12/31 05:55:13;;;;;;;;;;;16.40;99.90;;;;;;5028629;28;19925;-75
2022/12/31 05:57:40;;;;;;;;;;;16.40;99.90;;;;;;5034113;28;19932;-76
2022/12/31 06:00:08;;;;;;;;;;;16.40;99.90;;;;;;5013541;28;19928;-76
2022/12/31 06:02:40;;;;;;;;;;;16.40;99.90;;;;;;5030327;28;19925;-76
2022/12/31 06:05:07;;;;;;;;;;;16.40;99.90;;;;;;5033249;28;19975;-76
2022/12/31 06:07:34;;;;;;;;;;;16.50;99.90;;;;;;5020462;28;19925;-76
2022/12/31 06:10:02;;;;;;;;;;;16.50;99.90;;;;;;5049102;28;19929;-75
2022/12/31 06:12:29;;;;;;;;;;;16.50;99.90;;;;;;5043405;28;19934;-76
2022/12/31 06:14:55;;;;;;;;;;;16.50;99.90;;;;;;5017294;28;19925;-76
2022/12/31 06:17:22;;;;;;;;;;;16.50;99.90;;;;;;5038322;28;19926;-76
2022/12/31 06:19:49;;;;;;;;;;;16.50;99.90;;;;;;5023194;28;19936;-76
2022/12/31 06:22:16;;;;;;;;;;;16.60;99.90;;;;;;5040250;28;19925;-76
2022/12/31 06:24:42;;;;;;;;;;;16.60;99.90;;;;;;5033160;28;19932;-76
2022/12/31 06:27:10;;;;;;;;;;;16.60;99.90;;;;;;5038245;28;19929;-76
2022/12/31 06:29:37;;;;;;;;;;;16.60;99.90;;;;;;5038144;28;20004;-76
2022/12/31 06:32:04;;;;;;;;;;;16.60;99.90;;;;;;5032180;28;19925;-76
2022/12/31 06:34:31;;;;;;;;;;;16.60;99.90;;;;;;5026229;28;19929;-76
2022/12/31 06:36:58;;;;;;;;;;;16.60;99.90;;;;;;5031776;28;19978;-76
2022/12/31 06:39:25;;;;;;;;;;;16.60;99.90;;;;;;5036417;28;19940;-76
2022/12/31 06:41:51;;;;;;;;;;;16.60;99.90;;;;;;5038758;28;19929;-75
2022/12/31 06:44:21;;;;;;;;;;;16.60;99.90;;;;;;5033806;28;19944;-75
2022/12/31 06:46:47;;;;;;;;;;;16.60;99.90;;;;;;5034109;28;19929;-75
2022/12/31 06:49:16;;;;;;;;;;;16.60;99.90;;;;;;5043697;28;19929;-75
2022/12/31 06:51:44;;;;;;;;;;;16.60;99.90;;;;;;5051333;28;19932;-75
2022/12/31 06:54:11;;;;;;;;;;;16.60;99.90;;;;;;5032273;28;20379;-75
2022/12/31 06:56:38;;;;;;;;;;;16.60;99.90;;;;;;5037855;28;19925;-76
2022/12/31 06:59:05;;;;;;;;;;;16.60;99.90;;;;;;5031190;28;19929;-76
2022/12/31 07:01:49;;;;;;;;;;;16.60;99.90;;;;;;5036478;28;19936;-76
2022/12/31 07:04:30;;;;;;;;;;;16.70;99.90;;;;;;5032080;28;19936;-76
2022/12/31 07:06:59;;;;;;;;;;;16.70;99.90;;;;;;5035283;28;19925;-76
2022/12/31 07:09:29;;;;;;;;;;;16.70;99.90;;;;;;5033275;28;19936;-76
2022/12/31 07:12:02;;;;;;;;;;;16.70;99.90;;;;;;5036706;28;19956;-76
2022/12/31 07:14:33;;;;;;;;;;;16.70;99.90;;;;;;5033842;28;19931;-76
2022/12/31 07:17:06;;;;;;;;;;;16.70;99.90;;;;;;5032465;28;19926;-78
2022/12/31 07:19:39;;;;;;;;;;;16.70;99.90;;;;;;5036233;28;19929;-76
2022/12/31 07:22:09;;;;;;;;;;;16.70;99.90;;;;;;5030411;28;20015;-76
2022/12/31 07:24:37;;;;;;;;;;;16.70;99.90;;;;;;5038748;28;20443;-77
2022/12/31 07:27:10;;;;;;;;;;;16.70;99.90;;;;;;5030949;28;19951;-77
2022/12/31 07:29:46;;;;;;;;;;;16.70;99.90;;;;;;5035251;28;20015;-77
2022/12/31 07:32:22;;;;;;;;;;;16.70;99.90;;;;;;5034929;28;19935;-77
2022/12/31 07:34:55;;;;;;;;;;;16.70;99.90;;;;;;5013988;28;20443;-77
2022/12/31 07:37:25;;;;;;;;;;;16.70;99.90;;;;;;5036285;28;19925;-77
2022/12/31 07:39:56;;;;;;;;;;;16.70;99.90;;;;;;5030035;28;19975;-77
2022/12/31 07:42:28;;;;;;;;;;;16.70;99.90;;;;;;5032439;28;19929;-77
2022/12/31 07:44:59;;;;;;;;;;;16.90;99.90;;;;;;5026912;28;19929;-77
2022/12/31 07:47:28;;;;;;;;;;;16.70;99.90;;;;;;5014617;28;19925;-77
2022/12/31 07:49:56;;;;;;;;;;;16.60;99.90;;;;;;5028496;28;19930;-77
2022/12/31 07:52:23;;;;;;;;;;;16.60;99.90;;;;;;5029079;28;20028;-77
2022/12/31 07:54:50;;;;;;;;;;;16.60;99.90;;;;;;5033491;28;19929;-76
2022/12/31 07:57:18;;;;;;;;;;;16.80;99.90;;;;;;5009123;28;19940;-76
2022/12/31 07:59:52;;;;;;;;;;;16.60;99.90;;;;;;5031129;28;19929;-77
2022/12/31 08:02:25;;;;;;;;;;;16.60;99.90;;;;;;5009062;28;20491;-77
2022/12/31 08:04:58;;;;;;;;;;;16.60;99.90;;;;;;5012948;28;20244;-77
2022/12/31 08:07:29;;;;;;;;;;;16.60;99.90;;;;;;5032576;28;19928;-76
2022/12/31 08:09:59;;;;;;;;;;;16.60;99.90;;;;;;5012990;28;20023;-76
2022/12/31 08:12:27;;;;;;;;;;;16.60;99.90;;;;;;5028557;28;19952;-77
2022/12/31 08:14:54;;;;;;;;;;;16.60;99.90;;;;;;5034071;28;19975;-77
2022/12/31 08:17:21;;;;;;;;;;;16.60;99.90;;;;;;5034187;28;20282;-77
2022/12/31 08:19:48;;;;;;;;;;;16.60;99.90;;;;;;5040607;28;19932;-78
2022/12/31 08:22:23;;;;;;;;;;;16.70;99.90;;;;;;5030362;28;20291;-77
2022/12/31 08:24:54;;;;;;;;;;;16.70;99.90;;;;;;5031881;28;19925;-78
2022/12/31 08:27:27;;;;;;;;;;;16.80;99.90;;;;;;5031930;28;20028;-78
2022/12/31 08:29:56;;;;;;;;;;;16.80;99.90;;;;;;5026545;28;19929;-76
2022/12/31 08:32:25;;;;;;;;;;;16.80;99.90;;;;;;5019038;28;19929;-77
2022/12/31 08:34:58;;;;;;;;;;;16.90;99.90;;;;;;5020609;28;19928;-77
2022/12/31 08:37:31;;;;;;;;;;;16.90;99.90;;;;;;5038379;28;19935;-77
2022/12/31 08:40:04;;;;;;;;;;;16.90;99.90;;;;;;5038627;28;20044;-76
2022/12/31 08:42:34;;;;;;;;;;;17.00;99.90;;;;;;5033365;28;20307;-77
2022/12/31 08:45:05;;;;;;;;;;;17.70;99.90;;;;;;5049487;28;19945;-76
2022/12/31 08:47:37;;;;;;;;;;;17.10;99.90;;;;;;5047780;28;19971;-78
2022/12/31 08:50:04;;;;;;;;;;;17.10;99.90;;;;;;5010213;28;20346;-78
2022/12/31 08:52:33;;;;;;;;;;;17.10;99.90;;;;;;5037866;28;19929;-76
2022/12/31 08:55:01;;;;;;;;;;;17.10;99.90;;;;;;5037999;28;19935;-77
2022/12/31 08:57:32;;;;;;;;;;;17.20;99.90;;;;;;5048527;28;19931;-77
2022/12/31 09:00:02;;;;;;;;;;;17.20;99.90;;;;;;5042230;28;20568;-76
2022/12/31 09:02:39;;;;;;;;;;;17.20;99.90;;;;;;5048413;28;19951;-77
2022/12/31 09:05:09;;;;;;;;;;;17.20;99.90;;;;;;5043392;28;19933;-77
2022/12/31 09:07:39;;;;;;;;;;;17.10;99.90;;;;;;5053548;28;19992;-77
2022/12/31 09:10:12;;;;;;;;;;;17.20;99.90;;;;;;5048770;28;19981;-77
2022/12/31 09:12:42;;;;;;;;;;;17.20;99.90;;;;;;5052848;28;19956;-77
2022/12/31 09:15:13;;;;;;;;;;;17.20;99.90;;;;;;5039652;28;19948;-77
2022/12/31 09:17:43;;;;;;;;;;;17.20;99.90;;;;;;5037001;28;19928;-77
2022/12/31 09:20:15;;;;;;;;;;;17.20;99.90;;;;;;5049312;28;19933;-77
2022/12/31 09:22:43;;;;;;;;;;;17.20;99.90;;;;;;5027808;28;19929;-77
2022/12/31 09:25:13;;;;;;;;;;;17.20;99.90;;;;;;5027091;28;20026;-77
2022/12/31 09:27:42;;;;;;;;;;;17.20;99.90;;;;;;5031693;28;19983;-77
2022/12/31 09:30:11;;;;;;;;;;;17.20;99.90;;;;;;5025895;28;19983;-77
2022/12/31 09:32:45;;;;;;;;;;;17.20;99.90;;;;;;5025199;28;19937;-78
2022/12/31 09:35:15;;;;;;;;;;;17.30;99.90;;;;;;5014821;28;19936;-78
2022/12/31 09:37:45;;;;;;;;;;;17.20;99.90;;;;;;5007377;28;19929;-77
2022/12/31 09:40:31;;;;;;;;;;;17.30;99.90;;;;;;5030244;28;20313;-76
2022/12/31 09:43:02;;;;;;;;;;;17.30;99.90;;;;;;5030339;28;19929;-76
2022/12/31 09:45:48;;;;;;;;;;;17.30;99.90;;;;;;5028820;28;19929;-77
2022/12/31 09:48:29;;;;;;;;;;;17.30;99.90;;;;;;5038371;28;19940;-77
2022/12/31 09:51:02;;;;;;;;;;;17.30;99.90;;;;;;4996351;28;20629;-77
2022/12/31 09:53:38;;;;;;;;;;;17.40;99.90;;;;;;5032626;28;19924;-77
2022/12/31 09:56:11;;;;;;;;;;;17.40;99.90;;;;;;5034999;28;20394;-76
2022/12/31 09:58:41;;;;;;;;;;;17.40;99.90;;;;;;5026587;28;19935;-77
2022/12/31 10:01:13;;;;;;;;;;;17.40;99.90;;;;;;5021496;28;19929;-77
2022/12/31 10:03:47;;;;;;;;;;;17.40;99.90;;;;;;5028717;28;19929;-77
2022/12/31 10:06:17;;;;;;;;;;;17.50;99.90;;;;;;5035022;28;19929;-77
2022/12/31 10:09:11;;;;;;;;;;;17.50;99.90;;;;;;5034874;28;19932;-76
2022/12/31 10:11:49;;;;;;;;;;;16.30;99.90;;;;;;4959643;28;19925;-76
2022/12/31 10:14:25;;;;;;;;;;;17.50;99.90;;;;;;5033488;28;20314;-76
2022/12/31 10:17:01;;;;;;;;;;;17.50;99.90;;;;;;5032878;28;20401;-77
2022/12/31 10:19:40;;;;;;;;;;;17.50;99.90;;;;;;5052123;28;19929;-77
2022/12/31 10:22:14;;;;;;;;;;;17.80;99.90;;;;;;5043861;28;19933;-79
2022/12/31 10:24:54;;;;;;;;;;;17.70;99.90;;;;;;5038891;28;19935;-80
2022/12/31 10:27:28;;;;;;;;;;;17.70;99.90;;;;;;5025392;28;19929;-79
2022/12/31 10:29:58;;;;;;;;;;;17.80;99.90;;;;;;5031269;28;19925;-78
2022/12/31 10:32:30;;;;;;;;;;;17.90;99.90;;;;;;5029390;28;19929;-78
2022/12/31 10:35:01;;;;;;;;;;;18.00;99.90;;;;;;5025431;28;19933;-78
2022/12/31 10:37:29;;;;;;;;;;;18.00;99.90;;;;;;5024630;28;19925;-77
2022/12/31 10:40:04;;;;;;;;;;;18.00;99.90;;;;;;5032224;28;19975;-78
2022/12/31 10:42:43;;;;;;;;;;;17.90;99.90;;;;;;5030064;28;19972;-78
2022/12/31 10:45:30;;;;;;;;;;;18.00;99.90;;;;;;5024853;28;19948;-80
2022/12/31 10:48:12;;;;;;;;;;;17.90;99.90;;;;;;5033004;28;19947;-79
2022/12/31 10:50:53;;;;;;;;;;;18.00;99.90;;;;;;4987383;28;19932;-77
2022/12/31 10:53:47;;;;;;;;;;;18.00;99.90;;;;;;5016272;28;19933;-79
2022/12/31 10:56:32;;;;;;;;;;;18.10;99.90;;;;;;4975429;28;19929;-79
2022/12/31 10:59:14;;;;;;;;;;;18.10;99.90;;;;;;5037404;28;19925;-78
2022/12/31 11:01:48;;;;;;;;;;;18.10;99.90;;;;;;5026029;28;19925;-78
2022/12/31 11:04:45;;;;;;;;;;;18.20;99.90;;;;;;5016941;28;20026;-78
2022/12/31 11:07:23;;;;;;;;;;;18.20;99.90;;;;;;4968191;28;19934;-79
2022/12/31 11:10:07;;;;;;;;;;;18.30;99.90;;;;;;5028832;28;19928;-79
2022/12/31 11:12:45;;;;;;;;;;;18.30;99.90;;;;;;5029408;28;19936;-77
2022/12/31 11:15:36;;;;;;;;;;;18.40;99.90;;;;;;5029853;28;19967;-79
2022/12/31 11:18:12;;;;;;;;;;;18.40;99.90;;;;;;5047494;28;19922;-77
2022/12/31 11:20:57;;;;;;;;;;;18.40;99.90;;;;;;5048148;28;20055;-79
2022/12/31 11:23:30;;;;;;;;;;;18.40;99.90;;;;;;5026342;28;19959;-78
2022/12/31 11:26:01;;;;;;;;;;;18.40;99.90;;;;;;5029181;28;20206;-80
2022/12/31 11:28:43;;;;;;;;;;;18.40;99.90;;;;;;5029839;28;19936;-79
2022/12/31 11:31:19;;;;;;;;;;;18.40;99.90;;;;;;5019885;28;19929;-78
2022/12/31 11:33:53;;;;;;;;;;;18.30;99.90;;;;;;5040946;28;19925;-78
2022/12/31 11:36:25;;;;;;;;;;;18.30;99.90;;;;;;5023114;28;19983;-79
2022/12/31 11:38:52;;;;;;;;;;;18.30;99.90;;;;;;5025656;28;20548;-78
2022/12/31 11:41:23;;;;;;;;;;;18.20;99.90;;;;;;5022941;28;20351;-78
2022/12/31 11:43:53;;;;;;;;;;;18.10;99.90;;;;;;5028634;28;19929;-78
2022/12/31 11:46:31;;;;;;;;;;;18.00;99.90;;;;;;5029178;28;19951;-78
2022/12/31 11:49:08;;;;;;;;;;;18.00;99.90;;;;;;5031167;28;20031;-77
2022/12/31 11:51:52;;;;;;;;;;;17.90;99.90;;;;;;5034826;28;19933;-79
2022/12/31 11:54:29;;;;;;;;;;;17.90;99.90;;;;;;5028626;28;20039;-78
2022/12/31 11:57:01;;;;;;;;;;;17.80;99.90;;;;;;5016710;28;19929;-78
2022/12/31 11:59:28;;;;;;;;;;;17.80;99.90;;;;;;5018779;28;19933;-77
2022/12/31 12:02:00;;;;;;;;;;;17.80;99.90;;;;;;5036178;28;19925;-77
2022/12/31 12:04:27;;;;;;;;;;;17.70;99.90;;;;;;5034933;28;19937;-77
2022/12/31 12:06:54;;;;;;;;;;;17.70;99.90;;;;;;5035103;28;19933;-78
2022/12/31 12:09:25;;;;;;;;;;;17.70;99.90;;;;;;5043185;28;19929;-79
2022/12/31 12:11:58;;;;;;;;;;;17.70;99.90;;;;;;5031146;28;19979;-77
2022/12/31 12:14:31;;;;;;;;;;;17.70;99.90;;;;;;5028990;28;19929;-78
2022/12/31 12:16:59;;;;;;;;;;;17.70;99.90;;;;;;5030782;28;20425;-78
2022/12/31 12:19:27;;;;;;;;;;;17.70;99.90;;;;;;5017565;28;19929;-77
2022/12/31 12:21:56;;;;;;;;;;;17.70;99.90;;;;;;5030966;28;19935;-77
2022/12/31 12:24:25;;;;;;;;;;;17.70;99.90;;;;;;5028347;28;20012;-76
2022/12/31 12:26:52;;;;;;;;;;;17.70;99.90;;;;;;5021369;28;19931;-78
2022/12/31 12:29:20;;;;;;;;;;;17.60;99.90;;;;;;5029232;28;19960;-77
2022/12/31 12:31:57;;;;;;;;;;;17.60;99.90;;;;;;5011708;28;19933;-77
2022/12/31 12:34:28;;;;;;;;;;;17.60;99.90;;;;;;5023710;28;19925;-79
2022/12/31 12:36:54;;;;;;;;;;;17.50;99.90;;;;;;5008476;28;20025;-78
2022/12/31 12:39:22;;;;;;;;;;;17.40;99.90;;;;;;5028263;28;19925;-77
2022/12/31 12:41:59;;;;;;;;;;;17.40;99.90;;;;;;5029024;28;20433;-77
2022/12/31 12:44:26;;;;;;;;;;;17.30;99.90;;;;;;5024924;28;19924;-80
2022/12/31 12:46:53;;;;;;;;;;;17.20;99.90;;;;;;5023862;23;19980;-73
2022/12/31 12:49:22;;;;;;;;;;;17.20;99.90;;;;;;5026479;28;19926;-73
2022/12/31 12:52:01;;;;;;;;;;;17.10;99.90;;;;;;5035595;28;20364;-73
2022/12/31 12:54:35;;;;;;;;;;;17.10;99.90;;;;;;5020227;28;19929;-74
2022/12/31 12:57:06;;;;;;;;;;;17.20;99.90;;;;;;5041904;28;19998;-74
2022/12/31 12:59:47;;;;;;;;;;;17.20;99.90;;;;;;5043387;28;20326;-74
2022/12/31 13:02:25;;;;;;;;;;;17.20;99.90;;;;;;5043491;28;19935;-74
2022/12/31 13:05:00;;;;;;;;;;;17.20;99.90;;;;;;5042197;28;19932;-74
2022/12/31 13:07:33;;;;;;;;;;;17.20;99.90;;;;;;5027121;28;19929;-75
2022/12/31 13:10:11;;;;;;;;;;;17.30;99.90;;;;;;5023901;28;20317;-74
2022/12/31 13:12:39;;;;;;;;;;;17.30;99.90;;;;;;5044119;28;19954;-74
2022/12/31 13:15:13;;;;;;;;;;;17.30;99.90;;;;;;5044102;28;19936;-72
2022/12/31 13:17:46;;;;;;;;;;;17.30;99.90;;;;;;5045359;28;19933;-73
2022/12/31 13:20:15;;;;;;;;;;;17.30;99.90;;;;;;5046151;28;19929;-73
2022/12/31 13:22:45;;;;;;;;;;;17.30;99.90;;;;;;5024908;28;19929;-73
2022/12/31 13:25:19;;;;;;;;;;;17.30;99.90;;;;;;5041295;28;20350;-74
2022/12/31 13:27:49;;;;;;;;;;;17.40;99.90;;;;;;5553836;22;19929;-73
2022/12/31 13:30:18;;;;;;;;;;;17.40;99.90;;;;;;5046442;28;19928;-73
2022/12/31 13:32:46;;;;;;;;;;;17.40;99.90;;;;;;5044577;28;19956;-73
2022/12/31 13:35:19;;;;;;;;;;;17.40;99.90;;;;;;5055055;28;20281;-74
2022/12/31 13:37:48;;;;;;;;;;;17.70;99.90;;;;;;5026711;28;19936;-74
2022/12/31 13:40:18;;;;;;;;;;;17.50;99.90;;;;;;5027089;28;19929;-74
2022/12/31 13:42:50;;;;;;;;;;;17.50;99.90;;;;;;5031619;28;20398;-73
2022/12/31 13:45:20;;;;;;;;;;;17.60;99.90;;;;;;5032843;28;19932;-74
2022/12/31 13:47:49;;;;;;;;;;;17.60;99.90;;;;;;5035381;28;19929;-74
2022/12/31 13:50:19;;;;;;;;;;;17.60;99.90;;;;;;5030282;28;20320;-73
2022/12/31 13:52:50;;;;;;;;;;;17.60;99.90;;;;;;5032693;28;19936;-73
2022/12/31 13:55:19;;;;;;;;;;;17.60;99.90;;;;;;5030493;28;20385;-73
2022/12/31 13:57:49;;;;;;;;;;;17.60;99.90;;;;;;5032067;28;19936;-73
2022/12/31 14:00:19;;;;;;;;;;;17.60;99.90;;;;;;5032475;28;20313;-73
2022/12/31 14:02:49;;;;;;;;;;;17.60;99.90;;;;;;5024417;28;19944;-73
2022/12/31 14:05:19;;;;;;;;;;;17.60;99.90;;;;;;5026370;28;19929;-73
2022/12/31 14:07:50;;;;;;;;;;;17.60;99.90;;;;;;5035706;28;20369;-73
2022/12/31 14:10:20;;;;;;;;;;;17.60;99.90;;;;;;5028217;28;20012;-73
2022/12/31 14:12:51;;;;;;;;;;;17.60;99.90;;;;;;5036686;28;19929;-74
2022/12/31 14:15:22;;;;;;;;;;;17.60;99.90;;;;;;5027383;28;20021;-73
2022/12/31 14:17:52;;;;;;;;;;;17.60;99.90;;;;;;5035354;28;20036;-74
2022/12/31 14:20:22;;;;;;;;;;;17.50;99.90;;;;;;5029975;28;19940;-74
2022/12/31 14:22:57;;;;;;;;;;;17.50;99.90;;;;;;5035310;28;19936;-74
2022/12/31 14:25:26;;;;;;;;;;;17.40;99.90;;;;;;5024530;28;19925;-73
2022/12/31 14:27:54;;;;;;;;;;;17.40;99.90;;;;;;5036817;28;19930;-73
2022/12/31 14:30:22;;;;;;;;;;;17.30;99.90;;;;;;5040009;28;19935;-74
2022/12/31 14:32:56;;;;;;;;;;;17.20;99.90;;;;;;5035502;28;20398;-74
2022/12/31 14:35:30;;;;;;;;;;;17.20;99.90;;;;;;5024786;28;19929;-73
2022/12/31 14:38:00;;;;;;;;;;;17.20;99.90;;;;;;5030381;28;20310;-74
2022/12/31 14:40:32;;;;;;;;;;;17.20;99.90;;;;;;5036708;28;19929;-73
2022/12/31 14:43:06;;;;;;;;;;;17.10;99.90;;;;;;5026859;28;19980;-74